createdAt,value
2018-07-09T00:01:36.656Z,54.80
2018-07-09T00:04:19.549Z,55.00
2018-07-09T00:06:59.065Z,55.10
2018-07-09T00:09:37.437Z,55.30
2018-07-09T00:18:26.462Z,55.00
2018-07-09T00:27:47.929Z,55.50
2018-07-09T00:33:20.057Z,55.80
2018-07-09T00:44:14.724Z,56.50
2018-07-09T00:52:51.308Z,56.70
2018-07-09T00:58:52.260Z,56.70
2018-07-09T01:13:32.745Z,57.70
2018-07-09T01:27:59.003Z,58.00
2018-07-09T01:40:03.434Z,57.70
2018-07-09T01:43:05.481Z,58.30
2018-07-09T01:55:13.383Z,58.60
2018-07-09T01:57:52.835Z,58.30
2018-07-09T02:00:54.699Z,58.50
2018-07-09T02:03:52.935Z,58.80
2018-07-09T02:06:39.070Z,58.40
2018-07-09T02:13:12.528Z,58.50
2018-07-09T02:16:17.018Z,58.50
2018-07-09T02:19:06.629Z,58.60
2018-07-09T02:21:56.560Z,58.80
2018-07-09T02:24:58.122Z,58.70
2018-07-09T02:30:49.762Z,59.30
2018-07-09T02:33:32.759Z,59.00
2018-07-09T02:36:33.041Z,59.20
2018-07-09T02:39:28.309Z,59.20
2018-07-09T02:45:01.981Z,59.60
2018-07-09T02:50:18.168Z,59.10
2018-07-09T02:53:00.956Z,59.30
2018-07-09T03:02:56.150Z,59.20
2018-07-09T03:12:08.218Z,59.20
2018-07-09T03:21:11.039Z,59.40
2018-07-09T03:23:54.940Z,59.20
2018-07-09T03:26:37.644Z,59.20
2018-07-09T03:29:15.764Z,59.70
2018-07-09T03:31:54.533Z,59.50
2018-07-09T03:34:29.789Z,59.40
2018-07-09T03:39:54.094Z,59.30
2018-07-09T03:42:41.272Z,60.30
2018-07-09T03:45:25.465Z,59.20
2018-07-09T03:48:08.489Z,59.40
2018-07-09T03:51:00.285Z,59.40
2018-07-09T03:57:24.559Z,59.50
2018-07-09T04:00:31.535Z,59.40
2018-07-09T04:13:25.963Z,59.40
2018-07-09T04:20:30.334Z,59.70
2018-07-09T04:33:08.412Z,60.00
2018-07-09T04:35:38.625Z,60.20
2018-07-09T04:38:09.489Z,60.00
2018-07-09T04:40:39.665Z,60.10
2018-07-09T04:43:12.384Z,60.20
2018-07-09T04:48:55.511Z,60.10
2018-07-09T04:51:28.805Z,60.00
2018-07-09T04:53:58.475Z,60.20
2018-07-09T04:56:28.081Z,59.80
2018-07-09T04:58:57.452Z,59.70
2018-07-09T05:01:26.922Z,59.80
2018-07-09T05:03:56.216Z,59.90
2018-07-09T05:06:25.935Z,59.80
2018-07-09T05:08:59.196Z,59.80
2018-07-09T05:11:28.460Z,59.70
2018-07-09T05:13:58.349Z,60.00
2018-07-09T05:16:27.706Z,59.60
2018-07-09T05:18:57.188Z,59.70
2018-07-09T05:21:26.788Z,59.50
2018-07-09T05:23:56.550Z,59.40
2018-07-09T05:26:26.350Z,59.70
2018-07-09T05:28:56.198Z,59.60
2018-07-09T05:31:26.903Z,59.60
2018-07-09T05:33:56.923Z,59.50
2018-07-09T05:36:26.371Z,59.40
2018-07-09T05:38:56.207Z,59.40
2018-07-09T05:41:25.773Z,59.40
2018-07-09T05:43:57.191Z,59.30
2018-07-09T05:46:27.074Z,59.30
2018-07-09T05:48:57.387Z,59.30
2018-07-09T05:51:27.073Z,59.10
2018-07-09T05:53:57.911Z,59.00
2018-07-09T05:56:27.491Z,59.00
2018-07-09T05:58:57.626Z,59.00
2018-07-09T06:01:27.004Z,58.90
2018-07-09T06:03:56.452Z,58.80
2018-07-09T06:06:25.970Z,58.70
2018-07-09T06:08:55.789Z,58.70
2018-07-09T06:11:25.622Z,58.80
2018-07-09T06:13:57.139Z,58.60
2018-07-09T06:16:26.509Z,58.40
2018-07-09T06:18:55.963Z,58.60
2018-07-09T06:21:25.259Z,58.40
2018-07-09T06:24:16.895Z,58.50
2018-07-09T06:26:46.373Z,58.20
2018-07-09T06:29:15.848Z,58.20
2018-07-09T06:31:45.597Z,58.00
2018-07-09T06:34:36.670Z,57.70
2018-07-09T06:37:06.602Z,57.60
2018-07-09T06:39:36.498Z,57.60
2018-07-09T06:42:05.845Z,57.50
2018-07-09T06:44:35.732Z,57.60
2018-07-09T06:47:23.278Z,57.40
2018-07-09T06:49:52.772Z,57.40
2018-07-09T06:52:22.047Z,57.50
2018-07-09T06:54:51.390Z,57.30
2018-07-09T06:57:21.087Z,57.00
2018-07-09T06:59:52.881Z,57.10
2018-07-09T07:02:22.305Z,57.00
2018-07-09T07:04:51.619Z,57.00
2018-07-09T07:07:22.148Z,57.00
2018-07-09T07:09:52.059Z,57.10
2018-07-09T07:12:21.873Z,57.20
2018-07-09T07:14:51.524Z,57.40
2018-07-09T07:17:22.050Z,57.50
2018-07-09T07:19:51.421Z,57.50
2018-07-09T07:22:20.969Z,57.50
2018-07-09T07:24:50.378Z,57.50
2018-07-09T07:27:20.036Z,57.40
2018-07-09T07:29:49.461Z,58.10
2018-07-09T07:32:18.874Z,57.20
2018-07-09T07:34:48.327Z,57.20
2018-07-09T07:37:17.647Z,57.10
2018-07-09T07:39:47.797Z,57.00
2018-07-09T07:42:18.322Z,56.90
2018-07-09T07:44:48.394Z,56.80
2018-07-09T07:47:18.939Z,56.60
2018-07-09T07:49:48.785Z,56.60
2018-07-09T07:52:18.426Z,56.30
2018-07-09T07:54:48.730Z,56.10
2018-07-09T07:57:18.677Z,55.90
2018-07-09T07:59:48.444Z,55.90
2018-07-09T08:02:18.453Z,55.90
2018-07-09T08:04:49.103Z,55.90
2018-07-09T08:09:53.169Z,55.60
2018-07-09T08:14:53.977Z,55.40
2018-07-09T08:17:24.403Z,55.20
2018-07-09T08:19:54.421Z,55.20
2018-07-09T08:22:28.089Z,55.10
2018-07-09T08:24:59.299Z,55.10
2018-07-09T08:27:29.220Z,54.90
2018-07-09T08:30:00.496Z,55.00
2018-07-09T08:32:34.675Z,54.80
2018-07-09T08:35:05.079Z,54.70
2018-07-09T08:37:34.973Z,54.50
2018-07-09T08:40:05.930Z,54.50
2018-07-09T08:42:35.899Z,54.30
2018-07-09T08:45:07.251Z,53.70
2018-07-09T08:47:37.099Z,53.40
2018-07-09T08:50:08.653Z,53.40
2018-07-09T08:52:39.026Z,53.20
2018-07-09T08:55:10.257Z,52.70
2018-07-09T08:57:40.986Z,52.50
2018-07-09T09:00:11.821Z,52.30
2018-07-09T09:02:45.666Z,52.30
2018-07-09T09:05:18.276Z,52.10
2018-07-09T09:07:51.678Z,51.90
2018-07-09T09:10:24.476Z,51.90
2018-07-09T09:12:55.351Z,51.80
2018-07-09T09:15:26.816Z,51.50
2018-07-09T09:17:59.978Z,51.40
2018-07-09T09:20:31.183Z,51.20
2018-07-09T09:25:32.752Z,50.80
2018-07-09T09:28:03.874Z,50.50
2018-07-09T09:30:34.552Z,50.50
2018-07-09T09:33:06.896Z,50.30
2018-07-09T09:35:37.435Z,50.40
2018-07-09T09:38:08.619Z,50.30
2018-07-09T09:40:38.081Z,50.10
2018-07-09T09:43:07.864Z,49.30
2018-07-09T09:45:37.162Z,49.30
2018-07-09T09:48:06.549Z,49.10
2018-07-09T09:50:35.949Z,48.90
2018-07-09T09:53:05.255Z,48.60
2018-07-09T09:55:42.787Z,48.00
2018-07-09T09:58:12.219Z,48.00
2018-07-09T10:00:46.829Z,47.60
2018-07-09T10:03:16.212Z,47.10
2018-07-09T10:05:46.182Z,46.90
2018-07-09T10:08:15.667Z,46.70
2018-07-09T10:10:45.788Z,46.40
2018-07-09T10:13:15.692Z,46.10
2018-07-09T10:15:45.497Z,46.40
2018-07-09T10:18:14.980Z,45.80
2018-07-09T10:20:45.092Z,46.10
2018-07-09T10:23:15.152Z,46.00
2018-07-09T10:25:45.085Z,45.60
2018-07-09T10:28:14.359Z,45.00
2018-07-09T10:30:43.653Z,44.40
2018-07-09T10:33:13.140Z,44.10
2018-07-09T10:35:42.869Z,43.50
2018-07-09T10:38:12.708Z,43.30
2018-07-09T10:40:43.007Z,43.40
2018-07-09T10:43:12.948Z,43.40
2018-07-09T10:45:42.604Z,43.40
2018-07-09T10:48:32.748Z,43.50
2018-07-09T10:51:02.361Z,43.40
2018-07-09T10:53:31.667Z,43.40
2018-07-09T10:56:01.002Z,43.40
2018-07-09T10:58:30.470Z,43.50
2018-07-09T11:00:59.700Z,43.50
2018-07-09T11:03:29.176Z,43.40
2018-07-09T11:05:58.819Z,42.80
2018-07-09T11:08:28.114Z,42.50
2018-07-09T11:13:26.299Z,42.20
2018-07-09T11:15:56.269Z,41.90
2018-07-09T11:18:26.181Z,41.30
2018-07-09T11:20:56.961Z,40.90
2018-07-09T11:23:30.685Z,41.00
2018-07-09T11:26:01.047Z,40.40
2018-07-09T11:28:30.983Z,40.50
2018-07-09T11:31:01.422Z,40.80
2018-07-09T11:33:31.650Z,41.00
2018-07-09T11:36:01.523Z,40.70
2018-07-09T11:38:31.476Z,40.30
2018-07-09T11:41:01.465Z,40.10
2018-07-09T11:43:31.731Z,39.30
2018-07-09T11:46:02.003Z,39.10
2018-07-09T11:48:32.060Z,38.60
2018-07-09T11:51:02.104Z,37.80
2018-07-09T11:53:31.996Z,37.80
2018-07-09T11:56:01.962Z,37.70
2018-07-09T12:01:00.293Z,37.30
2018-07-09T12:03:29.651Z,37.40
2018-07-09T12:05:59.891Z,37.20
2018-07-09T12:08:30.060Z,37.30
2018-07-09T12:10:59.848Z,36.10
2018-07-09T12:13:29.848Z,35.70
2018-07-09T12:15:59.589Z,35.80
2018-07-09T12:18:29.042Z,35.20
2018-07-09T12:20:58.901Z,34.60
2018-07-09T12:23:28.627Z,34.50
2018-07-09T12:25:59.450Z,34.30
2018-07-09T12:28:29.383Z,34.30
2018-07-09T12:30:59.023Z,34.00
2018-07-09T12:33:28.938Z,33.80
2018-07-09T12:35:58.824Z,33.70
2018-07-09T12:38:29.352Z,33.90
2018-07-09T12:41:00.056Z,33.30
2018-07-09T12:43:30.882Z,32.50
2018-07-09T12:46:01.410Z,32.30
2018-07-09T12:48:31.718Z,32.10
2018-07-09T12:51:02.319Z,31.40
2018-07-09T12:53:32.434Z,31.20
2018-07-09T12:56:03.170Z,30.30
2018-07-09T12:58:33.324Z,30.00
2018-07-09T13:01:02.992Z,30.50
2018-07-09T13:03:44.637Z,30.00
2018-07-09T13:06:16.235Z,29.90
2018-07-09T13:08:46.784Z,30.00
2018-07-09T13:11:18.599Z,30.10
2018-07-09T13:13:49.513Z,30.00
2018-07-09T13:16:19.991Z,29.60
2018-07-09T13:18:51.009Z,29.30
2018-07-09T13:21:21.822Z,29.30
2018-07-09T13:23:51.161Z,29.30
2018-07-09T13:26:21.411Z,29.40
2018-07-09T13:28:51.082Z,29.40
2018-07-09T13:31:20.970Z,28.90
2018-07-09T13:33:50.812Z,29.10
2018-07-09T13:38:49.628Z,28.90
2018-07-09T13:41:19.492Z,28.50
2018-07-09T13:43:49.550Z,28.40
2018-07-09T13:46:19.621Z,27.80
2018-07-09T13:48:50.365Z,27.60
2018-07-09T13:51:21.116Z,27.40
2018-07-09T13:53:52.055Z,27.30
2018-07-09T13:56:22.941Z,27.20
2018-07-09T13:58:53.247Z,27.50
2018-07-09T14:01:23.308Z,27.50
2018-07-09T14:03:53.571Z,27.40
2018-07-09T14:06:23.649Z,27.40
2018-07-09T14:08:53.828Z,27.30
2018-07-09T14:11:23.991Z,27.10
2018-07-09T14:13:54.984Z,26.80
2018-07-09T14:16:25.278Z,26.50
2018-07-09T14:18:56.133Z,26.50
2018-07-09T14:21:25.936Z,26.60
2018-07-09T14:23:56.295Z,26.40
2018-07-09T14:26:26.413Z,26.40
2018-07-09T14:28:56.428Z,26.60
2018-07-09T14:31:27.430Z,26.60
2018-07-09T14:33:57.451Z,26.60
2018-07-09T14:36:27.650Z,26.40
2018-07-09T14:38:58.023Z,26.40
2018-07-09T14:41:27.943Z,26.50
2018-07-09T14:43:58.006Z,26.10
2018-07-09T14:46:28.210Z,25.80
2018-07-09T14:48:57.738Z,25.80
2018-07-09T14:51:28.952Z,25.60
2018-07-09T14:53:59.525Z,25.10
2018-07-09T14:56:29.690Z,25.10
2018-07-09T14:58:59.682Z,24.90
2018-07-09T15:01:29.769Z,24.90
2018-07-09T15:04:02.516Z,24.90
2018-07-09T15:09:01.589Z,24.00
2018-07-09T15:11:31.402Z,23.90
2018-07-09T15:14:02.415Z,23.70
2018-07-09T15:16:34.661Z,23.50
2018-07-09T15:19:05.420Z,23.30
2018-07-09T15:21:36.558Z,23.40
2018-07-09T15:24:07.480Z,23.30
2018-07-09T15:26:37.611Z,23.40
2018-07-09T15:29:08.124Z,23.10
2018-07-09T15:31:48.217Z,22.80
2018-07-09T15:34:19.723Z,22.40
2018-07-09T15:39:20.883Z,22.20
2018-07-09T15:41:51.212Z,22.30
2018-07-09T15:44:23.824Z,22.50
2018-07-09T15:46:55.133Z,22.40
2018-07-09T15:49:25.399Z,22.30
2018-07-09T15:51:56.748Z,22.20
2018-07-09T15:54:28.055Z,22.30
2018-07-09T15:57:00.668Z,22.40
2018-07-09T15:59:34.328Z,22.30
2018-07-09T16:02:04.797Z,22.30
2018-07-09T16:04:35.517Z,22.40
2018-07-09T16:07:07.185Z,22.50
2018-07-09T16:09:38.163Z,22.70
2018-07-09T16:12:08.181Z,23.00
2018-07-09T16:14:38.491Z,23.20
2018-07-09T16:17:10.497Z,23.80
2018-07-09T16:19:40.450Z,24.20
2018-07-09T16:22:10.631Z,24.40
2018-07-09T16:24:41.245Z,24.50
2018-07-09T16:27:12.040Z,24.70
2018-07-09T16:29:43.259Z,24.90
2018-07-09T16:35:28.346Z,25.30
2018-07-09T16:37:58.290Z,25.70
2018-07-09T16:40:29.293Z,25.90
2018-07-09T16:42:59.456Z,26.60
2018-07-09T16:45:30.429Z,26.00
2018-07-09T16:48:00.987Z,26.30
2018-07-09T16:50:31.631Z,26.20
2018-07-09T16:53:01.852Z,26.30
2018-07-09T16:55:32.048Z,26.70
2018-07-09T16:58:02.625Z,26.90
2018-07-09T17:00:33.109Z,26.90
2018-07-09T17:03:03.934Z,27.20
2018-07-09T17:05:35.268Z,27.70
2018-07-09T17:08:05.537Z,28.10
2018-07-09T17:10:35.892Z,29.10
2018-07-09T17:13:05.973Z,29.00
2018-07-09T17:22:31.216Z,30.10
2018-07-09T17:39:21.692Z,31.70
2018-07-09T17:45:16.965Z,32.00
2018-07-09T17:59:07.124Z,33.00
2018-07-09T18:01:36.990Z,32.90
2018-07-09T18:04:07.068Z,33.20
2018-07-09T18:06:36.703Z,33.50
2018-07-09T18:09:06.743Z,33.90
2018-07-09T18:11:36.447Z,34.40
2018-07-09T18:14:06.027Z,34.80
2018-07-09T18:16:35.529Z,35.30
2018-07-09T18:19:05.328Z,35.70
2018-07-09T18:22:01.634Z,36.20
2018-07-09T18:28:52.125Z,36.90
2018-07-09T18:47:34.938Z,38.50
2018-07-09T18:50:09.606Z,39.10
2018-07-09T18:52:41.583Z,40.00
2018-07-09T18:55:46.456Z,40.10
2018-07-09T18:58:16.022Z,40.20
2018-07-09T19:01:19.410Z,40.60
2018-07-09T19:04:01.399Z,41.30
2018-07-09T19:07:45.515Z,41.00
2018-07-09T19:10:33.914Z,41.30
2018-07-09T19:16:24.072Z,42.20
2018-07-09T19:22:37.984Z,42.30
2018-07-09T19:39:33.720Z,43.50
2018-07-09T19:42:17.106Z,43.50
2018-07-09T19:44:53.005Z,44.10
2018-07-09T20:02:13.959Z,44.60
2018-07-09T20:04:51.105Z,45.10
2018-07-09T20:07:34.082Z,45.00
2018-07-09T20:13:22.286Z,45.30
2018-07-09T20:18:50.043Z,45.70
2018-07-09T20:30:04.307Z,45.80
2018-07-09T20:32:47.620Z,46.20
2018-07-09T20:38:12.272Z,46.40
2018-07-09T20:43:34.441Z,46.50
2018-07-09T20:49:00.190Z,46.70
2018-07-09T20:51:36.766Z,46.90
2018-07-09T20:54:15.386Z,47.30
2018-07-09T20:59:54.689Z,47.60
2018-07-09T21:02:43.627Z,47.30
2018-07-09T21:05:33.231Z,47.40
2018-07-09T21:08:21.901Z,47.60
2018-07-09T21:11:00.595Z,47.80
2018-07-09T21:13:40.301Z,47.90
2018-07-09T21:16:28.104Z,48.20
2018-07-09T21:19:24.384Z,48.40
2018-07-09T21:24:45.658Z,48.30
2018-07-09T21:33:34.213Z,48.60
2018-07-09T21:36:14.473Z,48.50
2018-07-09T21:41:47.963Z,48.60
2018-07-09T21:50:25.057Z,49.20
2018-07-09T21:53:09.047Z,49.60
2018-07-09T21:59:11.049Z,50.10
2018-07-09T22:04:47.683Z,49.70
2018-07-09T22:10:21.725Z,49.90
2018-07-09T22:15:47.918Z,50.30
2018-07-09T22:21:29.328Z,50.60
2018-07-09T22:24:13.069Z,50.50
2018-07-09T22:26:55.246Z,51.10
2018-07-09T22:29:38.754Z,50.60
2018-07-09T22:35:29.091Z,50.70
2018-07-09T22:41:17.769Z,50.90
2018-07-09T22:47:14.772Z,50.90
2018-07-09T22:56:06.879Z,51.10
2018-07-09T23:05:00.243Z,51.00
2018-07-09T23:22:32.261Z,51.00
2018-07-09T23:25:10.784Z,50.20
2018-07-09T23:27:39.619Z,50.40
2018-07-09T23:30:07.725Z,50.70
2018-07-09T23:32:35.887Z,50.70
2018-07-09T23:35:03.998Z,50.80
2018-07-09T23:37:32.144Z,51.00
2018-07-09T23:40:00.309Z,51.10
2018-07-09T23:42:28.668Z,51.10
2018-07-09T23:44:56.847Z,51.10
2018-07-09T23:47:25.012Z,51.00
2018-07-09T23:49:53.186Z,50.90
2018-07-09T23:52:21.487Z,50.90
2018-07-09T23:54:49.571Z,50.90
2018-07-09T23:57:30.429Z,50.90
